Chalkyitsik, Alaska
Current Conditions -  °F | °C
As of 1:36 PM on Friday 31 Oct 2014 (Local Time) from PFYU Reporting Station
Scattered Clouds Scattered Clouds  
Wind Chill:   Ceiling: Unl
Heat Index: 18°   Visibility: 5mi
Dew Point: 10°   Wind: 13mph
Humidity: 73%   Direction: 60°ENE
Pressure: 29.6"   Gusts: 23mph
Location:  66.65°N, 143.72°W
Report Text: PFYU 312136Z 06011G20KT 5SM SCT020 M08/M12 A2960 RMK AO1 WX;-SN BR
Loading
Personal Weather Stations






























Interactive Weather Map
Tropical Storm Tracking
New forecast layout! Learn more

10-Day Weather Forecast

Advertisements
Track Severe Weather on mobile